Sarajevo, Bosnia and Herzegovina
Current Conditions -  °F | °C
As of 11:00 AM on Sunday 23 Nov 2014 (Local Time) from LQSA Reporting Station
Haze Haze  
Wind Chill: 32°   Ceiling: Unl
Heat Index: 32°   Visibility: 1.2mi
Dew Point: 30°   Wind: 1mph
Humidity: 93%   Direction: NA
Pressure: 30.39"   Gusts: NA
Location:  43.85°N, 18.38°E
Report Text: LQSA 230900Z VRB01KT 2000 BR NSC M00/M01 Q1029 BECMG 3000
Loading
Personal Weather Stations






























Interactive Weather Map New forecast layout! Learn more

10-Day Weather Forecast

Advertisements
Track Severe Weather on mobile